Time;durP1;ratioP1;P1;durP2;ratioP2;P2;SDS_P1;SDS_P2;PMS_P1;PMS_P2;Temp;Humidity;BMP_temperature;BMP_pressure;BME280_temperature;BME280_humidity;BME280_pressure;Samples;Min_cycle;Max_cycle;Signal;HPM_P1;HPM_P2
2023/01/14 00:00:52;;;;;;;0.30;0.30;;;4.20;99.90;;;;;;5073915;28;20452;-82
2023/01/14 00:03:19;;;;;;;0.30;0.30;;;4.20;99.90;;;;;;5073573;28;20944;-82
2023/01/14 00:05:54;;;;;;;0.30;0.30;;;4.20;99.90;;;;;;5073787;28;20470;-82
2023/01/14 00:08:21;;;;;;;4.17;0.53;;;4.20;99.90;;;;;;5073860;28;20457;-83
2023/01/14 00:10:48;;;;;;;0.30;0.30;;;4.20;99.90;;;;;;5073507;28;20848;-82
2023/01/14 00:13:15;;;;;;;0.30;0.30;;;4.20;99.90;;;;;;5073729;28;20454;-82
2023/01/14 00:15:52;;;;;;;0.30;0.30;;;4.20;99.90;;;;;;5073530;28;20481;-82
2023/01/14 00:18:19;;;;;;;0.50;0.50;;;4.20;99.90;;;;;;5073390;28;20970;-82
2023/01/14 00:20:59;;;;;;;0.30;0.30;;;4.20;99.90;;;;;;5073791;28;20441;-82
2023/01/14 00:23:26;;;;;;;0.77;0.27;;;4.20;99.90;;;;;;5072566;28;20441;-82
2023/01/14 00:25:53;;;;;;;0.30;0.30;;;4.20;99.90;;;;;;5073667;28;20811;-82
2023/01/14 00:28:20;;;;;;;0.30;0.20;;;4.20;99.90;;;;;;5073532;28;20456;-82
2023/01/14 00:30:47;;;;;;;0.30;0.20;;;4.20;99.90;;;;;;5073470;28;20481;-82
2023/01/14 00:33:15;;;;;;;0.40;0.30;;;4.20;99.90;;;;;;5073492;28;20464;-82
2023/01/14 00:35:41;;;;;;;0.40;0.40;;;4.20;99.90;;;;;;5073422;28;20500;-82
2023/01/14 00:38:08;;;;;;;0.30;0.20;;;4.30;99.90;;;;;;5073677;28;20450;-82
2023/01/14 00:40:35;;;;;;;0.30;0.30;;;4.30;99.90;;;;;;5073428;28;20450;-82
2023/01/14 00:43:02;;;;;;;0.30;0.20;;;4.30;99.90;;;;;;5073689;28;20441;-83
2023/01/14 00:45:28;;;;;;;0.40;0.30;;;4.30;99.90;;;;;;5073546;28;20473;-82
2023/01/14 00:47:56;;;;;;;0.30;0.30;;;4.30;99.90;;;;;;5073300;28;20445;-83
2023/01/14 00:50:24;;;;;;;0.30;0.27;;;4.30;99.90;;;;;;5073282;28;20481;-82
2023/01/14 00:52:51;;;;;;;0.30;0.20;;;4.30;99.90;;;;;;5073302;28;20445;-82
2023/01/14 00:55:18;;;;;;;0.30;0.30;;;4.30;99.90;;;;;;5073276;28;20478;-82
2023/01/14 00:57:44;;;;;;;0.40;0.40;;;4.30;99.90;;;;;;5073296;28;20457;-82
2023/01/14 01:00:12;;;;;;;0.30;0.30;;;4.30;99.90;;;;;;5073201;28;20684;-82
2023/01/14 01:02:39;;;;;;;0.30;0.30;;;4.30;99.90;;;;;;5073029;28;20441;-83
2023/01/14 01:05:06;;;;;;;0.97;0.97;;;4.40;99.90;;;;;;5073021;28;20481;-82
2023/01/14 01:07:34;;;;;;;0.30;0.20;;;4.40;99.90;;;;;;5072846;28;20452;-82
2023/01/14 01:10:01;;;;;;;0.30;0.20;;;4.30;99.90;;;;;;5073103;28;20487;-82
2023/01/14 01:12:28;;;;;;;0.30;0.20;;;4.40;99.90;;;;;;5073174;28;20453;-82
2023/01/14 01:14:55;;;;;;;1.67;0.30;;;4.40;99.90;;;;;;5072842;28;20475;-82
2023/01/14 01:17:22;;;;;;;0.30;0.20;;;4.40;99.90;;;;;;5073155;28;20433;-82
2023/01/14 01:19:50;;;;;;;0.30;0.30;;;4.50;99.90;;;;;;5073194;28;20445;-82
2023/01/14 01:22:17;;;;;;;0.30;0.30;;;4.40;99.90;;;;;;5073042;28;20453;-82
2023/01/14 01:24:45;;;;;;;0.30;0.30;;;4.40;99.90;;;;;;5073001;28;20464;-82
2023/01/14 01:27:12;;;;;;;0.30;0.30;;;4.40;99.90;;;;;;5072646;28;20960;-82
2023/01/14 01:29:39;;;;;;;0.30;0.20;;;4.40;99.90;;;;;;5072704;28;20457;-82
2023/01/14 01:32:06;;;;;;;0.30;0.30;;;4.30;99.90;;;;;;5072924;28;20481;-82
2023/01/14 01:34:33;;;;;;;0.47;0.40;;;4.40;99.90;;;;;;5072924;28;20477;-82
2023/01/14 01:36:59;;;;;;;0.30;0.30;;;4.40;99.90;;;;;;5076484;28;20450;-82
2023/01/14 01:39:26;;;;;;;0.30;0.20;;;4.30;99.90;;;;;;5076670;28;20448;-82
2023/01/14 01:41:54;;;;;;;2.00;0.40;;;4.40;99.90;;;;;;5076301;28;20960;-82
2023/01/14 01:44:58;;;;;;;0.30;0.30;;;4.40;99.90;;;;;;5076500;28;20473;-82
2023/01/14 01:47:25;;;;;;;0.30;0.30;;;4.30;99.90;;;;;;5076505;28;20449;-82
2023/01/14 01:49:52;;;;;;;0.30;0.30;;;4.30;99.90;;;;;;5076398;28;20458;-82
2023/01/14 01:52:23;;;;;;;0.40;0.30;;;4.40;99.90;;;;;;5076487;28;20444;-82
2023/01/14 01:54:53;;;;;;;0.30;0.20;;;4.40;99.90;;;;;;5076356;28;20461;-82
2023/01/14 01:57:22;;;;;;;0.40;0.33;;;4.40;99.90;;;;;;5076626;28;20449;-82
2023/01/14 01:59:52;;;;;;;2.57;0.30;;;4.40;99.90;;;;;;5076505;28;20464;-82
2023/01/14 02:02:21;;;;;;;0.30;0.20;;;4.40;99.90;;;;;;5076641;28;20796;-82
2023/01/14 02:04:47;;;;;;;0.30;0.20;;;4.40;99.90;;;;;;5076263;28;20478;-82
2023/01/14 02:07:17;;;;;;;0.30;0.20;;;4.50;99.90;;;;;;5076187;28;20449;-82
2023/01/14 02:09:45;;;;;;;0.30;0.20;;;4.50;99.90;;;;;;5076514;28;20460;-82
2023/01/14 02:12:31;;;;;;;0.30;0.30;;;4.50;99.90;;;;;;5076064;28;20481;-82
2023/01/14 02:15:14;;;;;;;0.30;0.20;;;4.50;99.90;;;;;;5075884;28;20491;-82
2023/01/14 02:18:04;;;;;;;0.30;0.30;;;4.50;99.90;;;;;;5076035;28;20430;-82
2023/01/14 02:20:35;;;;;;;0.50;0.40;;;4.40;99.90;;;;;;5076039;28;20793;-82
2023/01/14 02:23:46;;;;;;;0.30;0.30;;;4.30;99.90;;;;;;5075951;28;20430;-82
2023/01/14 02:26:41;;;;;;;0.30;0.30;;;4.30;99.90;;;;;;5047351;28;20473;-82
2023/01/14 02:29:32;;;;;;;0.30;0.20;;;4.30;99.90;;;;;;5075776;28;20430;-82
2023/01/14 02:32:07;;;;;;;0.30;0.30;;;4.20;99.90;;;;;;5075615;28;20474;-82
2023/01/14 02:34:42;;;;;;;0.30;0.20;;;4.10;99.90;;;;;;5075681;28;20552;-82
2023/01/14 02:37:13;;;;;;;0.30;0.20;;;4.10;99.90;;;;;;5075640;28;20456;-82
2023/01/14 02:39:46;;;;;;;1.03;0.40;;;4.10;99.90;;;;;;5075890;28;20426;-82
2023/01/14 02:45:08;;;;;;;0.30;0.30;;;4.10;99.90;;;;;;5075500;28;20804;-82
2023/01/14 02:47:38;;;;;;;0.37;0.37;;;4.00;99.90;;;;;;5074102;28;20445;-82
2023/01/14 02:50:07;;;;;;;0.30;0.20;;;4.00;99.90;;;;;;5075487;28;20457;-82
2023/01/14 02:52:33;;;;;;;0.90;0.40;;;3.90;99.90;;;;;;5074999;28;20450;-82
2023/01/14 02:55:02;;;;;;;2.00;0.83;;;4.00;99.90;;;;;;5075104;28;20473;-82
2023/01/14 02:57:44;;;;;;;0.30;0.30;;;4.00;99.90;;;;;;5075181;28;20455;-82
2023/01/14 03:00:20;;;;;;;0.30;0.20;;;4.00;99.90;;;;;;5075329;28;20421;-82
2023/01/14 03:03:04;;;;;;;0.30;0.30;;;4.00;99.90;;;;;;5075110;28;20785;-82
2023/01/14 03:05:44;;;;;;;0.40;0.40;;;4.00;99.90;;;;;;5075122;28;20481;-82
2023/01/14 03:08:18;;;;;;;0.40;0.37;;;3.90;99.90;;;;;;5075055;28;20430;-82
2023/01/14 03:10:49;;;;;;;0.30;0.20;;;3.90;99.90;;;;;;5074627;28;20998;-82
2023/01/14 03:13:21;;;;;;;0.30;0.30;;;3.90;99.90;;;;;;5075191;28;20437;-82
2023/01/14 03:15:55;;;;;;;0.30;0.27;;;3.90;99.90;;;;;;5074443;28;20496;-82
2023/01/14 03:18:29;;;;;;;0.30;0.30;;;3.90;99.90;;;;;;5074872;28;20430;-82
2023/01/14 03:21:00;;;;;;;0.57;0.40;;;4.00;99.90;;;;;;5074740;28;20422;-83
2023/01/14 03:23:30;;;;;;;0.30;0.20;;;4.00;99.90;;;;;;5074418;28;20773;-82
2023/01/14 03:25:59;;;;;;;0.30;0.20;;;4.00;99.90;;;;;;5074249;28;20976;-82
2023/01/14 03:28:32;;;;;;;0.30;0.20;;;4.10;99.90;;;;;;5074719;28;20460;-82
2023/01/14 03:31:03;;;;;;;0.30;0.20;;;4.20;99.90;;;;;;5074504;28;20488;-82
2023/01/14 03:33:34;;;;;;;0.30;0.30;;;4.30;99.90;;;;;;5074233;28;20982;-82
2023/01/14 03:36:04;;;;;;;0.30;0.30;;;4.30;99.90;;;;;;5074123;28;20523;-82
2023/01/14 03:38:35;;;;;;;1.00;0.40;;;4.30;99.90;;;;;;5074412;28;20449;-82
2023/01/14 03:41:04;;;;;;;0.30;0.30;;;4.30;99.90;;;;;;5074357;28;20425;-82
2023/01/14 03:43:35;;;;;;;0.30;0.30;;;4.30;99.90;;;;;;5074274;28;20452;-82
2023/01/14 03:46:03;;;;;;;0.30;0.30;;;4.20;99.90;;;;;;5074447;28;20469;-82
2023/01/14 03:48:30;;;;;;;0.30;0.20;;;4.20;99.90;;;;;;5073918;28;20425;-83
2023/01/14 03:51:04;;;;;;;0.30;0.30;;;4.20;99.90;;;;;;5074081;28;20837;-82
2023/01/14 03:53:37;;;;;;;0.40;0.30;;;4.10;99.90;;;;;;5073843;28;20928;-82
2023/01/14 03:56:15;;;;;;;0.40;0.40;;;4.10;99.90;;;;;;5074034;28;20476;-82
2023/01/14 03:58:46;;;;;;;0.30;0.30;;;4.00;99.90;;;;;;5073811;28;20433;-82
2023/01/14 04:01:18;;;;;;;0.30;0.30;;;4.00;99.90;;;;;;5073695;28;20426;-82
2023/01/14 04:03:46;;;;;;;0.30;0.30;;;4.00;99.90;;;;;;5073966;28;20445;-82
2023/01/14 04:06:14;;;;;;;0.30;0.20;;;3.90;99.90;;;;;;5073811;28;20472;-83
2023/01/14 04:08:41;;;;;;;0.30;0.30;;;3.90;99.90;;;;;;5073542;28;21047;-82
2023/01/14 04:11:10;;;;;;;0.30;0.20;;;3.90;99.90;;;;;;5073408;28;20840;-82
2023/01/14 04:16:22;;;;;;;0.30;0.20;;;3.80;99.90;;;;;;5073313;28;20842;-82
2023/01/14 04:18:49;;;;;;;0.60;0.50;;;3.80;99.90;;;;;;5073259;28;20824;-82
2023/01/14 04:21:15;;;;;;;0.30;0.20;;;3.80;99.90;;;;;;5073637;28;20441;-82
2023/01/14 04:23:42;;;;;;;0.30;0.20;;;3.80;99.90;;;;;;5073301;28;20972;-83
2023/01/14 04:26:09;;;;;;;0.30;0.20;;;3.90;99.90;;;;;;5073503;28;20469;-82
2023/01/14 04:28:36;;;;;;;0.30;0.30;;;3.90;99.90;;;;;;5073556;28;20450;-82
2023/01/14 04:31:02;;;;;;;0.30;0.30;;;3.80;99.90;;;;;;5073464;28;20480;-82
2023/01/14 04:33:31;;;;;;;0.30;0.30;;;3.90;99.90;;;;;;5073507;28;20449;-83
2023/01/14 04:35:57;;;;;;;0.30;0.30;;;3.80;99.90;;;;;;5073441;28;20848;-82
2023/01/14 04:38:24;;;;;;;0.30;0.30;;;3.80;99.90;;;;;;5074278;28;20454;-82
2023/01/14 04:40:52;;;;;;;0.30;0.20;;;3.80;99.90;;;;;;5073423;28;20465;-83
2023/01/14 04:43:18;;;;;;;0.30;0.20;;;3.80;99.90;;;;;;5073511;28;20445;-83
2023/01/14 04:45:45;;;;;;;0.30;0.20;;;3.90;99.90;;;;;;5073365;28;20590;-82
2023/01/14 04:48:11;;;;;;;1.70;1.60;;;3.90;99.90;;;;;;5073402;28;20450;-82
2023/01/14 04:50:44;;;;;;;0.30;0.20;;;3.90;99.90;;;;;;5073022;28;20457;-83
2023/01/14 04:53:12;;;;;;;0.30;0.30;;;3.90;99.90;;;;;;5073282;28;20542;-83
2023/01/14 04:55:42;;;;;;;0.93;0.83;;;3.90;99.90;;;;;;5072913;28;20472;-82
2023/01/14 04:58:10;;;;;;;0.60;0.60;;;3.90;99.90;;;;;;5073289;28;20453;-83
2023/01/14 05:00:38;;;;;;;0.30;0.20;;;3.90;99.90;;;;;;5073549;28;20445;-82
2023/01/14 05:03:06;;;;;;;0.30;0.30;;;3.90;99.90;;;;;;5073589;28;20468;-83
2023/01/14 05:05:34;;;;;;;0.30;0.30;;;3.90;99.90;;;;;;5073345;28;20470;-83
2023/01/14 05:08:03;;;;;;;0.73;0.40;;;3.90;99.90;;;;;;5073198;28;20449;-83
2023/01/14 05:10:30;;;;;;;0.30;0.30;;;3.90;99.90;;;;;;5074687;28;20510;-83
2023/01/14 05:12:57;;;;;;;0.30;0.20;;;3.90;99.90;;;;;;5077130;28;20485;-83
2023/01/14 05:15:25;;;;;;;0.30;0.30;;;3.80;99.90;;;;;;5076843;28;20488;-83
2023/01/14 05:17:53;;;;;;;0.40;0.30;;;3.80;99.90;;;;;;5077157;28;20449;-83
2023/01/14 05:20:20;;;;;;;0.30;0.30;;;3.80;99.90;;;;;;5077094;28;20476;-82
2023/01/14 05:22:47;;;;;;;0.30;0.20;;;3.80;99.90;;;;;;5077033;28;20445;-82
2023/01/14 05:25:15;;;;;;;0.30;0.30;;;3.80;99.90;;;;;;5076835;28;20461;-82
2023/01/14 05:27:42;;;;;;;0.30;0.20;;;3.80;99.90;;;;;;5076902;28;20822;-83
2023/01/14 05:30:10;;;;;;;0.30;0.20;;;3.80;99.90;;;;;;5076741;28;20476;-82
2023/01/14 05:32:36;;;;;;;0.30;0.30;;;3.90;99.90;;;;;;5077302;28;20477;-83
2023/01/14 05:35:03;;;;;;;0.30;0.30;;;4.00;99.90;;;;;;5076692;28;20465;-83
2023/01/14 05:37:30;;;;;;;0.30;0.30;;;4.10;99.90;;;;;;5076726;28;20460;-82
2023/01/14 05:39:57;;;;;;;0.30;0.20;;;4.10;99.90;;;;;;5076403;28;21091;-82
2023/01/14 05:47:55;;;;;;;0.30;0.20;;;4.30;99.90;;;;;;5076606;28;20405;-83
2023/01/14 05:50:22;;;;;;;0.30;0.30;;;4.30;99.90;;;;;;5076465;28;20463;-82
2023/01/14 05:52:49;;;;;;;0.40;0.33;;;4.30;99.90;;;;;;5076247;28;20473;-83
2023/01/14 05:55:15;;;;;;;0.30;0.30;;;4.20;99.90;;;;;;5076542;28;20477;-83
2023/01/14 05:57:43;;;;;;;0.30;0.20;;;4.30;99.90;;;;;;5076279;28;20445;-83
2023/01/14 06:06:20;;;;;;;0.30;0.30;;;4.40;99.90;;;;;;5076230;28;20452;-83
2023/01/14 06:08:26;;;;;;;0.30;0.30;;;4.30;99.90;;;;;;5076107;28;20571;-83
2023/01/14 06:10:53;;;;;;;0.30;0.30;;;4.40;99.90;;;;;;5076152;28;20449;-82
2023/01/14 06:13:23;;;;;;;0.40;0.40;;;4.40;99.90;;;;;;5075943;28;20516;-83
2023/01/14 06:15:51;;;;;;;0.30;0.30;;;4.50;99.90;;;;;;5075542;28;20477;-83
2023/01/14 06:18:21;;;;;;;0.30;0.27;;;4.50;99.90;;;;;;5075909;28;20446;-83
2023/01/14 06:20:49;;;;;;;0.30;0.30;;;4.50;99.90;;;;;;5076324;28;20469;-83
2023/01/14 06:23:16;;;;;;;0.30;0.20;;;4.50;99.90;;;;;;5075530;28;21055;-83
2023/01/14 06:25:44;;;;;;;0.30;0.30;;;4.50;99.90;;;;;;5075419;28;21075;-83
2023/01/14 06:28:11;;;;;;;0.30;0.20;;;4.50;99.90;;;;;;5075743;28;20456;-83
2023/01/14 06:30:39;;;;;;;0.30;0.30;;;4.40;99.90;;;;;;5075688;28;20540;-82
2023/01/14 06:33:06;;;;;;;0.30;0.20;;;4.40;99.90;;;;;;5075818;28;20508;-82
2023/01/14 06:35:34;;;;;;;0.30;0.30;;;4.40;99.90;;;;;;5075869;28;20833;-82
2023/01/14 06:38:00;;;;;;;0.30;0.20;;;4.40;99.90;;;;;;5075284;28;20807;-82
2023/01/14 06:40:27;;;;;;;0.30;0.30;;;4.40;99.90;;;;;;5075231;28;20454;-82
2023/01/14 06:42:54;;;;;;;0.30;0.20;;;4.50;99.90;;;;;;5075471;28;20453;-83
2023/01/14 06:45:21;;;;;;;0.30;0.20;;;4.60;99.90;;;;;;5075401;28;20469;-82
2023/01/14 06:47:49;;;;;;;0.30;0.30;;;4.60;99.90;;;;;;5075367;28;20446;-82
2023/01/14 06:50:18;;;;;;;0.30;0.20;;;4.60;99.90;;;;;;5075379;28;20457;-83
2023/01/14 06:52:45;;;;;;;0.40;0.30;;;4.60;99.90;;;;;;5075247;28;20517;-82
2023/01/14 06:55:12;;;;;;;0.30;0.30;;;4.70;99.90;;;;;;5075228;28;20466;-82
2023/01/14 06:57:38;;;;;;;0.30;0.20;;;4.70;99.90;;;;;;5074904;28;20963;-82
2023/01/14 07:00:06;;;;;;;0.30;0.20;;;4.70;99.90;;;;;;5075158;28;20456;-82
2023/01/14 07:02:33;;;;;;;0.30;0.20;;;4.70;99.90;;;;;;5075091;28;20442;-83
2023/01/14 07:05:01;;;;;;;0.30;0.27;;;4.70;99.90;;;;;;5075035;28;21002;-82
2023/01/14 07:07:28;;;;;;;0.30;0.30;;;4.80;99.90;;;;;;5075084;28;20445;-83
2023/01/14 07:09:55;;;;;;;0.30;0.20;;;4.80;99.90;;;;;;5075023;28;20463;-82
2023/01/14 07:12:23;;;;;;;0.30;0.30;;;4.80;99.90;;;;;;5074930;28;20481;-82
2023/01/14 07:14:49;;;;;;;0.30;0.20;;;4.90;99.90;;;;;;5074670;28;20465;-82
2023/01/14 07:17:16;;;;;;;0.30;0.20;;;4.90;99.90;;;;;;5074854;28;20434;-83
2023/01/14 07:19:43;;;;;;;0.30;0.20;;;4.90;99.90;;;;;;5074821;28;20959;-82
2023/01/14 07:22:11;;;;;;;0.30;0.20;;;4.90;99.90;;;;;;5074995;28;20454;-82
2023/01/14 07:24:38;;;;;;;0.30;0.20;;;4.90;99.90;;;;;;5075085;28;20824;-82
2023/01/14 07:27:04;;;;;;;0.30;0.30;;;5.00;99.90;;;;;;5074811;28;20441;-83
2023/01/14 07:29:31;;;;;;;0.30;0.20;;;5.10;99.90;;;;;;5074873;28;20445;-83
2023/01/14 07:31:58;;;;;;;0.30;0.20;;;5.10;99.90;;;;;;5074620;28;20477;-83
2023/01/14 07:34:25;;;;;;;0.30;0.30;;;5.10;99.90;;;;;;5073941;28;20560;-83
2023/01/14 07:36:52;;;;;;;0.30;0.30;;;5.10;99.90;;;;;;5074541;28;20456;-83
2023/01/14 07:39:20;;;;;;;0.40;0.30;;;5.20;99.90;;;;;;5074409;28;20454;-83
2023/01/14 07:41:47;;;;;;;0.60;0.60;;;5.20;99.90;;;;;;5074410;28;20449;-82
2023/01/14 07:44:13;;;;;;;0.40;0.40;;;5.20;99.90;;;;;;5074192;28;20816;-83
2023/01/14 07:46:40;;;;;;;0.30;0.30;;;5.30;99.90;;;;;;5073952;28;20971;-83
2023/01/14 07:49:07;;;;;;;0.40;0.37;;;5.30;99.90;;;;;;5074243;28;20445;-83
2023/01/14 07:51:33;;;;;;;0.30;0.30;;;5.30;99.90;;;;;;5073846;28;20453;-83
2023/01/14 07:54:00;;;;;;;0.30;0.20;;;5.30;99.90;;;;;;5073995;28;20481;-83
2023/01/14 07:56:28;;;;;;;0.30;0.27;;;5.40;99.90;;;;;;5074119;28;20449;-83
2023/01/14 07:58:55;;;;;;;0.30;0.30;;;5.40;99.90;;;;;;5074059;28;20438;-83
2023/01/14 08:01:22;;;;;;;0.30;0.20;;;5.40;99.90;;;;;;5073713;28;20454;-82
2023/01/14 08:03:48;;;;;;;0.30;0.30;;;5.40;99.90;;;;;;5073968;28;20448;-83
2023/01/14 08:06:15;;;;;;;0.30;0.30;;;5.50;99.90;;;;;;5073789;28;20828;-83
2023/01/14 08:08:42;;;;;;;0.30;0.30;;;5.50;99.90;;;;;;5073480;28;20457;-83
2023/01/14 08:11:09;;;;;;;0.30;0.20;;;5.50;99.90;;;;;;5073725;28;20523;-83
2023/01/14 08:13:37;;;;;;;0.30;0.30;;;5.50;99.90;;;;;;5073412;28;21012;-83
2023/01/14 08:16:04;;;;;;;0.30;0.30;;;5.60;99.90;;;;;;5073292;28;20858;-83
2023/01/14 08:18:31;;;;;;;0.30;0.20;;;5.60;99.90;;;;;;5074344;28;20453;-84
2023/01/14 08:20:59;;;;;;;0.30;0.20;;;5.70;99.90;;;;;;5073749;28;20429;-84
2023/01/14 08:23:26;;;;;;;0.30;0.30;;;5.80;99.90;;;;;;5073767;28;20437;-84
2023/01/14 08:25:53;;;;;;;0.80;0.80;;;5.90;99.90;;;;;;5073472;28;21027;-84
2023/01/14 08:28:20;;;;;;;0.30;0.20;;;5.90;99.90;;;;;;5073359;28;20975;-84
2023/01/14 08:30:48;;;;;;;0.80;0.30;;;6.10;99.90;;;;;;5073614;28;20453;-84
2023/01/14 08:33:15;;;;;;;0.30;0.30;;;6.20;99.90;;;;;;5074042;28;20496;-84
2023/01/14 08:35:42;;;;;;;0.30;0.30;;;6.30;99.90;;;;;;5073410;28;20523;-84
2023/01/14 08:38:09;;;;;;;0.30;0.30;;;6.20;99.90;;;;;;5073172;28;20933;-83
2023/01/14 08:40:35;;;;;;;0.30;0.20;;;6.20;99.90;;;;;;5073517;28;20456;-83
2023/01/14 08:43:02;;;;;;;0.30;0.30;;;6.30;99.90;;;;;;5073271;28;20446;-84
2023/01/14 08:45:29;;;;;;;0.30;0.20;;;6.30;99.90;;;;;;5072676;28;20469;-84
2023/01/14 08:47:57;;;;;;;1.17;1.17;;;6.30;99.90;;;;;;5073402;28;20449;-84
2023/01/14 08:50:24;;;;;;;0.50;0.30;;;6.30;99.90;;;;;;5073701;28;20457;-82
2023/01/14 08:52:51;;;;;;;0.30;0.23;;;6.40;99.90;;;;;;5074208;28;20907;-84
2023/01/14 08:55:18;;;;;;;0.40;0.30;;;6.50;99.90;;;;;;5073072;28;20996;-84
2023/01/14 08:57:44;;;;;;;0.30;0.20;;;6.50;99.90;;;;;;5073018;28;20433;-84
2023/01/14 09:00:12;;;;;;;0.33;0.27;;;6.60;99.90;;;;;;5073158;28;20453;-84
2023/01/14 09:02:39;;;;;;;0.30;0.30;;;6.60;99.90;;;;;;5073173;28;20563;-84
2023/01/14 09:05:08;;;;;;;0.30;0.30;;;6.60;99.90;;;;;;5073214;28;20469;-84
2023/01/14 09:18:34;;;;;;;0.30;0.30;;;6.70;99.90;;;;;;5073462;28;20452;-84
2023/01/14 09:21:03;;;;;;;0.40;0.40;;;6.80;99.90;;;;;;5073082;28;20457;-84
2023/01/14 09:23:30;;;;;;;0.40;0.40;;;6.80;99.90;;;;;;5073004;28;20446;-84
2023/01/14 09:25:57;;;;;;;0.40;0.30;;;6.80;99.90;;;;;;5073050;28;20477;-85
2023/01/14 09:28:23;;;;;;;0.40;0.40;;;6.80;99.90;;;;;;5073475;28;20454;-84
2023/01/14 09:30:50;;;;;;;0.30;0.20;;;6.80;99.90;;;;;;5072975;28;20944;-84
2023/01/14 09:33:17;;;;;;;0.30;0.30;;;6.80;99.90;;;;;;5073124;28;20484;-83
2023/01/14 09:35:43;;;;;;;0.30;0.20;;;6.80;99.90;;;;;;5072518;28;20972;-84
2023/01/14 09:38:11;;;;;;;2.20;0.70;;;6.80;99.90;;;;;;5073163;28;20460;-85
2023/01/14 09:40:40;;;;;;;0.30;0.20;;;6.90;99.90;;;;;;5072882;28;20465;-84
2023/01/14 09:43:17;;;;;;;0.30;0.30;;;7.00;99.90;;;;;;5072945;28;20445;-84
2023/01/14 09:45:46;;;;;;;0.30;0.20;;;7.10;99.90;;;;;;5072886;28;20564;-85
2023/01/14 09:48:16;;;;;;;0.30;0.20;;;7.20;99.90;;;;;;5072656;28;20928;-84
2023/01/14 09:51:00;;;;;;;0.30;0.30;;;7.20;99.90;;;;;;5073275;28;20922;-84
2023/01/14 09:53:44;;;;;;;0.30;0.30;;;7.40;99.90;;;;;;5072792;28;20464;-84
2023/01/14 09:56:18;;;;;;;0.60;0.60;;;7.60;99.90;;;;;;5073751;28;20476;-84
2023/01/14 09:58:53;;;;;;;0.40;0.40;;;7.60;99.90;;;;;;5076233;28;20925;-84
2023/01/14 10:01:28;;;;;;;0.50;0.40;;;7.70;99.90;;;;;;5076720;28;20429;-84
2023/01/14 10:04:03;;;;;;;0.40;0.30;;;7.80;99.90;;;;;;5076406;28;20433;-84
2023/01/14 10:06:30;;;;;;;0.40;0.30;;;7.80;99.90;;;;;;5076141;28;20925;-84
2023/01/14 10:09:04;;;;;;;0.30;0.20;;;7.80;99.90;;;;;;5076465;28;20456;-84
2023/01/14 10:11:37;;;;;;;0.30;0.30;;;7.80;99.90;;;;;;5076017;28;20913;-84
2023/01/14 10:14:08;;;;;;;0.50;0.40;;;7.80;99.90;;;;;;5076092;28;20556;-84
2023/01/14 10:16:40;;;;;;;0.30;0.20;;;7.70;99.90;;;;;;5075700;28;20474;-85
2023/01/14 10:19:14;;;;;;;0.30;0.20;;;7.70;99.90;;;;;;5076290;28;20449;-83
2023/01/14 10:21:46;;;;;;;0.40;0.40;;;7.60;99.90;;;;;;5076160;28;20434;-85
2023/01/14 10:24:16;;;;;;;0.30;0.20;;;7.70;99.90;;;;;;5076003;28;20434;-84
2023/01/14 10:26:44;;;;;;;0.40;0.30;;;7.70;99.90;;;;;;5075677;28;20438;-84
2023/01/14 10:29:14;;;;;;;0.30;0.20;;;7.70;99.90;;;;;;5076465;28;20799;-84
2023/01/14 10:31:44;;;;;;;0.30;0.30;;;7.80;99.90;;;;;;5076013;28;20440;-85
2023/01/14 10:34:12;;;;;;;0.30;0.20;;;7.80;99.90;;;;;;5076337;28;20488;-86
2023/01/14 10:36:39;;;;;;;0.30;0.30;;;7.80;99.90;;;;;;5076096;28;20434;-85
2023/01/14 10:39:07;;;;;;;0.40;0.30;;;7.90;99.90;;;;;;5075930;28;20449;-85
2023/01/14 10:41:50;;;;;;;0.30;0.20;;;7.90;99.90;;;;;;5076123;28;20528;-85
2023/01/14 10:44:24;;;;;;;0.30;0.30;;;8.00;99.90;;;;;;5075825;28;20971;-85
2023/01/14 10:46:54;;;;;;;0.37;0.33;;;8.00;99.90;;;;;;5076515;28;20433;-85
2023/01/14 10:49:25;;;;;;;0.40;0.30;;;8.10;99.90;;;;;;5076679;28;20422;-85
2023/01/14 10:51:51;;;;;;;0.40;0.40;;;8.10;99.90;;;;;;5076733;28;20425;-84
2023/01/14 10:54:21;;;;;;;0.50;0.50;;;8.10;99.90;;;;;;5076979;28;20516;-85
2023/01/14 10:56:51;;;;;;;0.30;0.30;;;8.10;99.90;;;;;;5076485;28;20461;-85
2023/01/14 10:59:43;;;;;;;0.60;0.30;;;8.10;99.90;;;;;;5075909;28;20441;-85
2023/01/14 11:02:22;;;;;;;0.30;0.20;;;8.00;99.90;;;;;;5075670;28;20433;-86
2023/01/14 11:04:50;;;;;;;0.40;0.30;;;8.00;99.90;;;;;;5075836;28;20473;-85
2023/01/14 11:07:25;;;;;;;0.30;0.30;;;8.10;99.90;;;;;;5075145;28;20824;-85
2023/01/14 11:09:53;;;;;;;0.30;0.30;;;8.10;99.90;;;;;;5075603;28;20414;-86
2023/01/14 11:12:29;;;;;;;0.30;0.20;;;7.90;99.90;;;;;;5075128;28;21116;-85
2023/01/14 11:14:56;;;;;;;0.30;0.30;;;8.00;99.90;;;;;;5076022;28;20491;-85
2023/01/14 11:17:24;;;;;;;0.30;0.20;;;8.00;99.90;;;;;;5075173;28;20438;-85
2023/01/14 11:19:51;;;;;;;0.40;0.30;;;8.00;99.90;;;;;;5075087;28;20464;-85
2023/01/14 11:22:18;;;;;;;0.70;0.60;;;8.00;99.90;;;;;;5074816;28;20463;-85
2023/01/14 11:24:46;;;;;;;0.30;0.20;;;8.00;99.90;;;;;;5075170;28;20457;-85
2023/01/14 11:27:15;;;;;;;0.40;0.37;;;8.00;99.90;;;;;;5074735;28;20941;-86
2023/01/14 11:29:47;;;;;;;0.30;0.30;;;8.00;99.90;;;;;;5074772;28;20449;-85
2023/01/14 11:32:16;;;;;;;0.30;0.30;;;8.10;99.90;;;;;;5074648;28;20421;-85
2023/01/14 11:34:48;;;;;;;0.40;0.30;;;8.10;99.90;;;;;;5074804;28;20488;-86
2023/01/14 11:37:18;;;;;;;0.30;0.30;;;8.10;99.90;;;;;;5075123;28;20434;-85
2023/01/14 11:39:51;;;;;;;0.30;0.30;;;8.20;99.90;;;;;;5074327;28;20442;-85
2023/01/14 11:42:31;;;;;;;0.40;0.40;;;8.20;99.90;;;;;;5074768;28;20540;-85
2023/01/14 11:45:00;;;;;;;0.70;0.50;;;8.30;99.90;;;;;;5074763;28;20453;-84
2023/01/14 11:47:29;;;;;;;0.30;0.30;;;8.30;99.90;;;;;;5074852;28;20464;-85
2023/01/14 11:50:12;;;;;;;0.30;0.20;;;8.30;99.90;;;;;;5074730;28;20556;-85
2023/01/14 11:52:39;;;;;;;1.03;0.30;;;8.30;99.90;;;;;;5075497;28;20792;-85
2023/01/14 11:55:14;;;;;;;0.57;0.30;;;8.30;99.90;;;;;;5075214;28;20852;-86
2023/01/14 11:57:42;;;;;;;0.30;0.30;;;8.30;99.90;;;;;;5074999;28;20430;-85
2023/01/14 12:00:12;;;;;;;0.30;0.30;;;8.40;99.90;;;;;;5075487;28;20453;-85
2023/01/14 12:02:44;;;;;;;0.30;0.30;;;8.50;99.90;;;;;;5077030;28;20430;-86
2023/01/14 12:05:15;;;;;;;0.30;0.20;;;8.50;99.90;;;;;;5078583;28;20461;-87
2023/01/14 12:07:46;;;;;;;0.30;0.20;;;8.50;99.90;;;;;;5078246;28;20438;-87
2023/01/14 12:10:20;;;;;;;0.40;0.30;;;8.40;99.90;;;;;;5075757;28;20437;-86
2023/01/14 12:18:32;;;;;;;0.50;0.50;;;8.30;99.90;;;;;;5074823;28;20413;-87
2023/01/14 12:21:02;;;;;;;0.30;0.20;;;8.30;99.90;;;;;;5074835;28;20429;-85
2023/01/14 12:23:34;;;;;;;0.63;0.30;;;8.30;99.90;;;;;;5074826;28;20440;-84
2023/01/14 12:26:16;;;;;;;0.30;0.30;;;8.30;99.90;;;;;;5073923;28;20466;-83
2023/01/14 12:28:48;;;;;;;0.40;0.40;;;8.20;99.90;;;;;;5073959;28;20769;-84
2023/01/14 12:31:22;;;;;;;0.30;0.20;;;8.20;99.90;;;;;;5073894;28;20429;-84
2023/01/14 12:33:54;;;;;;;0.30;0.20;;;8.30;99.90;;;;;;5074111;28;20465;-84
2023/01/14 12:36:23;;;;;;;0.30;0.30;;;8.30;99.90;;;;;;5088270;28;20469;-83
2023/01/14 12:47:28;;;;;;;0.30;0.20;;;8.20;99.90;;;;;;5073297;28;20409;-84
2023/01/14 12:49:55;;;;;;;0.30;0.30;;;8.10;99.90;;;;;;5073497;28;20445;-84
2023/01/14 12:52:28;;;;;;;0.40;0.30;;;8.20;99.90;;;;;;5073297;28;20473;-84
2023/01/14 12:54:57;;;;;;;0.30;0.30;;;8.10;99.90;;;;;;5073255;28;20515;-84
2023/01/14 12:57:25;;;;;;;0.40;0.30;;;8.10;99.90;;;;;;5073477;28;20441;-85
2023/01/14 13:00:00;;;;;;;0.30;0.30;;;8.10;99.90;;;;;;5073387;28;20445;-84
2023/01/14 13:02:34;;;;;;;0.30;0.20;;;8.20;99.90;;;;;;5074029;28;20773;-85
2023/01/14 13:05:04;;;;;;;0.30;0.30;;;8.20;99.90;;;;;;5073253;28;20472;-85
2023/01/14 13:07:34;;;;;;;0.30;0.30;;;8.20;99.90;;;;;;5073219;28;20445;-85
2023/01/14 13:10:04;;;;;;;0.30;0.20;;;8.20;99.90;;;;;;5073291;28;20441;-84
2023/01/14 13:12:33;;;;;;;0.30;0.20;;;8.20;99.90;;;;;;5073201;28;20426;-84
2023/01/14 13:15:03;;;;;;;0.30;0.20;;;8.30;99.90;;;;;;5072801;28;20493;-84
2023/01/14 13:17:35;;;;;;;0.40;0.30;;;8.30;99.90;;;;;;5073284;28;20437;-84
2023/01/14 13:20:06;;;;;;;0.30;0.20;;;8.30;99.90;;;;;;5073404;28;20560;-84
2023/01/14 13:22:45;;;;;;;0.30;0.30;;;8.30;99.90;;;;;;5073105;28;20490;-83
2023/01/14 13:25:36;;;;;;;0.30;0.30;;;8.50;99.90;;;;;;5073020;28;20465;-84
2023/01/14 13:28:24;;;;;;;0.30;0.20;;;8.60;99.90;;;;;;5072706;28;20425;-84
2023/01/14 13:30:51;;;;;;;0.30;0.20;;;8.50;99.90;;;;;;5073183;28;20436;-84
2023/01/14 13:33:32;;;;;;;0.40;0.40;;;8.50;99.90;;;;;;5076598;28;20821;-84
2023/01/14 13:36:16;;;;;;;0.40;0.30;;;8.60;99.90;;;;;;5076575;28;20450;-84
2023/01/14 13:38:46;;;;;;;0.50;0.40;;;8.60;99.90;;;;;;5076525;28;20932;-85
2023/01/14 13:41:33;;;;;;;0.30;0.30;;;8.50;99.90;;;;;;5076766;28;20429;-84
2023/01/14 13:44:00;;;;;;;0.30;0.30;;;8.50;99.90;;;;;;5076648;28;20555;-85
2023/01/14 13:46:32;;;;;;;0.30;0.30;;;8.40;99.90;;;;;;5076534;28;20449;-84
2023/01/14 13:49:04;;;;;;;0.40;0.30;;;8.40;99.90;;;;;;5076426;28;20927;-84
2023/01/14 13:51:39;;;;;;;0.97;0.30;;;8.40;99.90;;;;;;5076638;28;20433;-84
2023/01/14 13:54:08;;;;;;;0.30;0.30;;;8.50;99.90;;;;;;5076419;28;20468;-84